Time;durP1;ratioP1;P1;durP2;ratioP2;P2;SDS_P1;SDS_P2;PMS_P1;PMS_P2;Temp;Humidity;BMP_temperature;BMP_pressure;BME280_temperature;BME280_humidity;BME280_pressure;Samples;Min_cycle;Max_cycle;Signal;HPM_P1;HPM_P2
2023/04/20 00:01:32;;;;;;;0.70;0.60;;;;;;;;;;5086150;28;20451;-79
2023/04/20 00:04:00;;;;;;;0.70;0.60;;;;;;;;;;5090712;28;20434;-77
2023/04/20 00:06:30;;;;;;;0.70;0.60;;;;;;;;;;5091211;28;20451;-79
2023/04/20 00:08:56;;;;;;;0.80;0.80;;;;;;;;;;5087538;28;20450;-77
2023/04/20 00:11:23;;;;;;;0.70;0.60;;;;;;;;;;5088205;28;20438;-78
2023/04/20 00:13:49;;;;;;;0.70;0.70;;;;;;;;;;5087179;28;20507;-77
2023/04/20 00:16:17;;;;;;;0.70;0.60;;;;;;;;;;5084519;28;20438;-78
2023/04/20 00:18:45;;;;;;;0.70;0.60;;;;;;;;;;5083841;28;20445;-78
2023/04/20 00:21:12;;;;;;;0.70;0.60;;;;;;;;;;5072222;28;20482;-76
2023/04/20 00:23:41;;;;;;;0.70;0.60;;;;;;;;;;5089384;28;20442;-76
2023/04/20 00:26:07;;;;;;;0.70;0.60;;;;;;;;;;5082572;28;20509;-78
2023/04/20 00:28:34;;;;;;;0.70;0.60;;;;;;;;;;5091394;28;20436;-79
2023/04/20 00:31:02;;;;;;;0.70;0.70;;;;;;;;;;5097666;28;20459;-78
2023/04/20 00:33:28;;;;;;;0.70;0.70;;;;;;;;;;5079425;28;20623;-77
2023/04/20 00:35:55;;;;;;;0.70;0.60;;;;;;;;;;5091714;28;20458;-76
2023/04/20 00:38:22;;;;;;;0.70;0.70;;;;;;;;;;5095829;28;20458;-77
2023/04/20 00:40:52;;;;;;;0.70;0.60;;;;;;;;;;5089744;28;20473;-79
2023/04/20 00:43:20;;;;;;;0.70;0.70;;;;;;;;;;5089142;28;20594;-78
2023/04/20 00:45:51;;;;;;;0.70;0.60;;;;;;;;;;5085042;28;20489;-79
2023/04/20 00:48:18;;;;;;;1.13;1.03;;;;;;;;;;5078152;28;20481;-78
2023/04/20 00:50:45;;;;;;;0.70;0.60;;;;;;;;;;5081279;28;20529;-78
2023/04/20 00:53:12;;;;;;;0.77;0.77;;;;;;;;;;5091387;28;20449;-74
2023/04/20 00:55:38;;;;;;;0.70;0.70;;;;;;;;;;5093383;28;20430;-77
2023/04/20 00:58:06;;;;;;;0.70;0.60;;;;;;;;;;5093917;28;20437;-79
2023/04/20 01:00:33;;;;;;;0.77;0.77;;;;;;;;;;5081139;28;20468;-79
2023/04/20 01:03:00;;;;;;;0.70;0.60;;;;;;;;;;5088098;28;20431;-79
2023/04/20 01:05:27;;;;;;;0.70;0.60;;;;;;;;;;5098694;28;20538;-79
2023/04/20 01:07:54;;;;;;;0.70;0.60;;;;;;;;;;5092266;28;20448;-75
2023/04/20 01:10:20;;;;;;;0.70;0.60;;;;;;;;;;5086163;28;20460;-77
2023/04/20 01:12:47;;;;;;;0.70;0.70;;;;;;;;;;5085610;28;20790;-79
2023/04/20 01:15:15;;;;;;;1.63;1.37;;;;;;;;;;5091960;28;20453;-78
2023/04/20 01:17:42;;;;;;;0.70;0.70;;;;;;;;;;5088617;28;20510;-79
2023/04/20 01:20:13;;;;;;;0.70;0.60;;;;;;;;;;5089285;28;20465;-79
2023/04/20 01:22:45;;;;;;;0.77;0.70;;;;;;;;;;5085620;28;20479;-78
2023/04/20 01:25:11;;;;;;;0.70;0.70;;;;;;;;;;5088143;28;20476;-79
2023/04/20 01:27:38;;;;;;;0.70;0.60;;;;;;;;;;5092913;28;20488;-79
2023/04/20 01:30:05;;;;;;;0.80;0.80;;;;;;;;;;5085560;28;20445;-78
2023/04/20 01:32:32;;;;;;;0.70;0.60;;;;;;;;;;5085097;28;20434;-81
2023/04/20 01:35:02;;;;;;;1.00;1.00;;;;;;;;;;5093853;28;20438;-78
2023/04/20 01:37:28;;;;;;;0.70;0.60;;;;;;;;;;5084074;28;20466;-80
2023/04/20 01:39:57;;;;;;;0.70;0.60;;;;;;;;;;5093401;28;20835;-75
2023/04/20 01:42:24;;;;;;;0.70;0.70;;;;;;;;;;5100695;28;20965;-80
2023/04/20 01:44:50;;;;;;;0.70;0.60;;;;;;;;;;5097134;28;20427;-78
2023/04/20 01:47:17;;;;;;;0.70;0.63;;;;;;;;;;5097809;28;20423;-77
2023/04/20 01:49:46;;;;;;;0.70;0.60;;;;;;;;;;5102211;28;21033;-80
2023/04/20 01:52:13;;;;;;;0.70;0.70;;;;;;;;;;5099151;28;20514;-79
2023/04/20 01:54:40;;;;;;;0.70;0.60;;;;;;;;;;5099159;28;20458;-78
2023/04/20 01:57:07;;;;;;;0.70;0.60;;;;;;;;;;5089341;28;20443;-75
2023/04/20 01:59:34;;;;;;;0.70;0.63;;;;;;;;;;5090351;28;20438;-77
2023/04/20 02:02:01;;;;;;;0.70;0.60;;;;;;;;;;5098114;28;20462;-80
2023/04/20 02:04:31;;;;;;;0.70;0.60;;;;;;;;;;5097228;28;20476;-81
2023/04/20 02:06:58;;;;;;;0.70;0.60;;;;;;;;;;5088665;28;20509;-77
2023/04/20 02:09:25;;;;;;;0.70;0.60;;;;;;;;;;5103086;28;20434;-77
2023/04/20 02:11:55;;;;;;;0.70;0.60;;;;;;;;;;5093360;28;20423;-77
2023/04/20 02:14:24;;;;;;;0.80;0.70;;;;;;;;;;5109616;28;20480;-75
2023/04/20 02:16:52;;;;;;;0.70;0.60;;;;;;;;;;5100528;28;20435;-80
2023/04/20 02:19:18;;;;;;;0.70;0.60;;;;;;;;;;5099117;28;20469;-77
2023/04/20 02:21:45;;;;;;;0.70;0.60;;;;;;;;;;5099849;28;20556;-77
2023/04/20 02:24:12;;;;;;;0.70;0.70;;;;;;;;;;5100085;28;20506;-79
2023/04/20 02:26:39;;;;;;;0.70;0.60;;;;;;;;;;5099120;28;20469;-77
2023/04/20 02:29:06;;;;;;;0.70;0.67;;;;;;;;;;5091931;28;20515;-79
2023/04/20 02:31:34;;;;;;;0.70;0.60;;;;;;;;;;5094350;28;20430;-78
2023/04/20 02:34:01;;;;;;;0.70;0.70;;;;;;;;;;5083810;28;21006;-78
2023/04/20 02:36:28;;;;;;;0.70;0.70;;;;;;;;;;5099147;28;20459;-78
2023/04/20 02:38:54;;;;;;;0.70;0.60;;;;;;;;;;5096939;28;20413;-77
2023/04/20 02:41:21;;;;;;;0.70;0.60;;;;;;;;;;5098270;28;20475;-76
2023/04/20 02:43:48;;;;;;;0.80;0.80;;;;;;;;;;5104092;28;20480;-78
2023/04/20 02:46:14;;;;;;;0.70;0.60;;;;;;;;;;5089870;28;20472;-77
2023/04/20 02:48:47;;;;;;;0.70;0.60;;;;;;;;;;5096613;28;20434;-79
2023/04/20 02:51:14;;;;;;;0.70;0.60;;;;;;;;;;5108689;28;20439;-75
2023/04/20 02:53:43;;;;;;;0.70;0.60;;;;;;;;;;5111073;28;20442;-80
2023/04/20 02:56:22;;;;;;;0.70;0.60;;;;;;;;;;5091627;28;20438;-76
2023/04/20 02:58:52;;;;;;;0.70;0.70;;;;;;;;;;5098216;28;20461;-79
2023/04/20 03:01:40;;;;;;;0.70;0.60;;;;;;;;;;5104870;28;20477;-76
2023/04/20 03:04:20;;;;;;;0.70;0.60;;;;;;;;;;5114127;28;20442;-79
2023/04/20 03:07:01;;;;;;;0.70;0.60;;;;;;;;;;5105403;28;20470;-78
2023/04/20 03:09:31;;;;;;;0.70;0.60;;;;;;;;;;5096965;28;20443;-77
2023/04/20 03:11:57;;;;;;;0.70;0.60;;;;;;;;;;5103233;28;20445;-79
2023/04/20 03:14:42;;;;;;;0.70;0.60;;;;;;;;;;5095646;28;20494;-77
2023/04/20 03:17:08;;;;;;;0.70;0.60;;;;;;;;;;5108668;28;20526;-77
2023/04/20 03:19:36;;;;;;;0.70;0.60;;;;;;;;;;5090762;28;20514;-77
2023/04/20 03:22:04;;;;;;;0.70;0.70;;;;;;;;;;5093084;28;20489;-77
2023/04/20 03:24:34;;;;;;;0.80;0.80;;;;;;;;;;5105600;28;20789;-76
2023/04/20 03:27:13;;;;;;;0.70;0.70;;;;;;;;;;5098053;28;20442;-79
2023/04/20 03:29:59;;;;;;;0.70;0.60;;;;;;;;;;5103818;28;20439;-78
2023/04/20 03:32:27;;;;;;;0.70;0.60;;;;;;;;;;5106579;28;20441;-78
2023/04/20 03:34:58;;;;;;;0.70;0.70;;;;;;;;;;5105097;28;20467;-78
2023/04/20 03:37:28;;;;;;;0.70;0.60;;;;;;;;;;5108306;28;20492;-76
2023/04/20 03:39:58;;;;;;;0.70;0.70;;;;;;;;;;5109431;28;20529;-79
2023/04/20 03:42:25;;;;;;;0.70;0.60;;;;;;;;;;5096171;28;20498;-77
2023/04/20 03:44:53;;;;;;;0.70;0.60;;;;;;;;;;5089002;28;20452;-77
2023/04/20 03:47:20;;;;;;;1.63;0.97;;;;;;;;;;5106603;28;20492;-77
2023/04/20 03:49:49;;;;;;;0.70;0.70;;;;;;;;;;5092128;28;20418;-76
2023/04/20 03:52:19;;;;;;;0.70;0.60;;;;;;;;;;5107443;28;20470;-77
2023/04/20 03:54:46;;;;;;;0.70;0.70;;;;;;;;;;5110608;28;20430;-75
2023/04/20 03:57:14;;;;;;;0.70;0.60;;;;;;;;;;5106777;28;20435;-75
2023/04/20 03:59:42;;;;;;;0.70;0.70;;;;;;;;;;5098901;28;20477;-78
2023/04/20 04:02:14;;;;;;;0.70;0.70;;;;;;;;;;5109546;28;20467;-78
2023/04/20 04:04:44;;;;;;;0.70;0.60;;;;;;;;;;5160550;22;20482;-78
2023/04/20 04:07:13;;;;;;;2.30;2.10;;;;;;;;;;5082251;28;20474;-78
2023/04/20 04:09:45;;;;;;;0.70;0.70;;;;;;;;;;5059464;28;20478;-74
2023/04/20 04:12:17;;;;;;;0.70;0.70;;;;;;;;;;5640881;22;20725;31
2023/04/20 04:17:34;;;;;;;0.70;0.60;;;;;;;;;;5265646;22;20482;-79
2023/04/20 04:20:08;;;;;;;0.70;0.60;;;;;;;;;;5026009;23;21077;-78
2023/04/20 04:22:36;;;;;;;0.70;0.60;;;;;;;;;;5011630;28;20491;-78
2023/04/20 04:28:23;;;;;;;0.70;0.60;;;;;;;;;;5050309;22;20490;-77
2023/04/20 04:31:04;;;;;;;0.70;0.60;;;;;;;;;;5010791;28;20842;-76
2023/04/20 04:33:33;;;;;;;0.70;0.60;;;;;;;;;;5023246;28;20496;-76
2023/04/20 04:38:38;;;;;;;0.70;0.60;;;;;;;;;;5010944;28;20463;-77
2023/04/20 04:41:07;;;;;;;0.70;0.60;;;;;;;;;;5253473;22;20513;-80
2023/04/20 04:43:36;;;;;;;0.70;0.60;;;;;;;;;;4993566;28;20458;-79
2023/04/20 04:46:13;;;;;;;0.70;0.67;;;;;;;;;;5004380;28;20453;-79
2023/04/20 04:48:41;;;;;;;0.70;0.60;;;;;;;;;;5006022;28;20471;-82
2023/04/20 04:51:08;;;;;;;1.10;0.97;;;;;;;;;;5003535;28;20455;-78
2023/04/20 04:53:36;;;;;;;0.70;0.60;;;;;;;;;;4998464;28;20474;-81
2023/04/20 04:56:03;;;;;;;0.70;0.60;;;;;;;;;;5001700;28;20613;-78
2023/04/20 04:58:32;;;;;;;0.70;0.70;;;;;;;;;;5002585;28;20433;-81
2023/04/20 05:01:03;;;;;;;0.70;0.60;;;;;;;;;;5002916;28;20440;-80
2023/04/20 05:03:30;;;;;;;0.70;0.70;;;;;;;;;;5004817;28;20532;-78
2023/04/20 05:05:57;;;;;;;0.70;0.60;;;;;;;;;;4985855;28;20450;-76
2023/04/20 05:08:24;;;;;;;0.70;0.60;;;;;;;;;;4995708;28;20869;-82
2023/04/20 05:10:50;;;;;;;0.70;0.70;;;;;;;;;;4998274;28;20485;-79
2023/04/20 05:13:18;;;;;;;0.70;0.60;;;;;;;;;;4993123;28;20500;-80
2023/04/20 05:15:44;;;;;;;1.03;0.97;;;;;;;;;;4992250;28;20453;-81
2023/04/20 05:18:12;;;;;;;0.70;0.70;;;;;;;;;;4991956;28;20497;-80
2023/04/20 05:20:39;;;;;;;0.70;0.60;;;;;;;;;;4990839;28;20758;-81
2023/04/20 05:23:05;;;;;;;0.70;0.65;;;;;;;;;;4975169;28;20477;-79
2023/04/20 05:25:35;;;;;;;0.70;0.70;;;;;;;;;;4991253;28;20306;-79
2023/04/20 05:28:02;;;;;;;0.80;0.70;;;;;;;;;;4990402;28;20601;-77
2023/04/20 05:30:29;;;;;;;0.70;0.70;;;;;;;;;;4990459;28;20214;-77
2023/04/20 05:32:55;;;;;;;0.70;0.60;;;;;;;;;;4988126;28;20195;-78
2023/04/20 05:35:23;;;;;;;0.70;0.70;;;;;;;;;;4991253;28;20234;-79
2023/04/20 05:37:50;;;;;;;0.88;0.80;;;;;;;;;;4991593;28;20332;-78
2023/04/20 05:40:17;;;;;;;0.70;0.60;;;;;;;;;;4990922;28;20561;-80
2023/04/20 05:42:44;;;;;;;0.70;0.60;;;;;;;;;;4991010;28;20215;-78
2023/04/20 05:45:11;;;;;;;0.70;0.60;;;;;;;;;;4989473;28;20202;-78
2023/04/20 05:47:38;;;;;;;0.70;0.65;;;;;;;;;;4976065;28;20676;-79
2023/04/20 05:50:05;;;;;;;0.70;0.70;;;;;;;;;;4991328;28;20720;-79
2023/04/20 05:52:33;;;;;;;0.70;0.60;;;;;;;;;;4990456;28;20735;-80
2023/04/20 05:55:00;;;;;;;0.70;0.60;;;;;;;;;;4989606;28;20631;-81
2023/04/20 05:57:27;;;;;;;0.70;0.70;;;;;;;;;;4988258;28;20504;-80
2023/04/20 05:59:54;;;;;;;0.70;0.70;;;;;;;;;;4976926;28;20250;-78
2023/04/20 06:02:21;;;;;;;0.80;0.73;;;;;;;;;;4989359;28;20598;-75
2023/04/20 06:04:48;;;;;;;0.70;0.60;;;;;;;;;;4989407;28;20193;-75
2023/04/20 06:07:15;;;;;;;1.02;0.93;;;;;;;;;;4989019;28;20226;-77
2023/04/20 06:09:43;;;;;;;0.70;0.60;;;;;;;;;;4990416;28;20206;-79
2023/04/20 06:12:10;;;;;;;0.70;0.70;;;;;;;;;;4977174;28;20605;-79
2023/04/20 06:14:36;;;;;;;0.80;0.80;;;;;;;;;;4990672;28;20518;-77
2023/04/20 06:17:04;;;;;;;0.70;0.70;;;;;;;;;;4989480;28;20560;-77
2023/04/20 06:19:31;;;;;;;0.70;0.63;;;;;;;;;;4988130;28;20207;-80
2023/04/20 06:21:58;;;;;;;0.70;0.70;;;;;;;;;;4989424;28;20227;-81
2023/04/20 06:24:26;;;;;;;2.92;1.73;;;;;;;;;;4989139;28;20207;-79
2023/04/20 06:26:56;;;;;;;0.70;0.60;;;;;;;;;;4989316;28;20200;-77
2023/04/20 06:29:23;;;;;;;0.70;0.70;;;;;;;;;;4989434;28;20211;-77
2023/04/20 06:31:49;;;;;;;0.70;0.60;;;;;;;;;;4991337;28;20278;-81
2023/04/20 06:34:18;;;;;;;0.70;0.60;;;;;;;;;;4974713;28;20676;-79
2023/04/20 06:36:45;;;;;;;0.70;0.70;;;;;;;;;;4990006;28;20278;-81
2023/04/20 06:39:11;;;;;;;0.70;0.60;;;;;;;;;;4989804;28;20435;-81
2023/04/20 06:41:38;;;;;;;1.00;1.00;;;;;;;;;;4971606;28;20660;-78
2023/04/20 06:44:07;;;;;;;0.70;0.60;;;;;;;;;;4974435;28;20234;-80
2023/04/20 06:46:34;;;;;;;0.70;0.70;;;;;;;;;;4989330;28;20218;-80
2023/04/20 06:49:02;;;;;;;0.70;0.60;;;;;;;;;;4988261;28;20204;-79
2023/04/20 06:51:28;;;;;;;0.80;0.80;;;;;;;;;;4989017;28;20691;-80
2023/04/20 06:53:55;;;;;;;0.70;0.60;;;;;;;;;;4988900;28;20431;-80
2023/04/20 06:56:21;;;;;;;0.70;0.60;;;;;;;;;;4988456;28;20211;-80
2023/04/20 06:58:48;;;;;;;0.80;0.80;;;;;;;;;;4989146;28;20738;-80
2023/04/20 07:01:16;;;;;;;0.70;0.70;;;;;;;;;;4972302;28;20217;-81
2023/04/20 07:03:45;;;;;;;0.73;0.73;;;;;;;;;;4973971;28;20219;-80
2023/04/20 07:06:12;;;;;;;0.70;0.70;;;;;;;;;;4990297;28;20282;-80
2023/04/20 07:08:39;;;;;;;0.70;0.70;;;;;;;;;;4989116;28;20747;-80
2023/04/20 07:11:06;;;;;;;0.70;0.70;;;;;;;;;;4989676;28;20242;-79
2023/04/20 07:13:33;;;;;;;0.70;0.60;;;;;;;;;;4987279;28;20188;-79
2023/04/20 07:15:59;;;;;;;0.70;0.60;;;;;;;;;;4973179;28;20193;-80
2023/04/20 07:18:29;;;;;;;8.73;2.08;;;;;;;;;;4988466;28;20208;-79
2023/04/20 07:20:56;;;;;;;1.00;0.90;;;;;;;;;;4986138;28;20779;-80
2023/04/20 07:23:23;;;;;;;0.70;0.60;;;;;;;;;;4986552;28;20704;-80
2023/04/20 07:25:50;;;;;;;0.70;0.70;;;;;;;;;;4989082;28;20290;-79
2023/04/20 07:28:17;;;;;;;0.70;0.70;;;;;;;;;;4987716;28;20203;-79
2023/04/20 07:30:44;;;;;;;3.30;2.20;;;;;;;;;;4976143;28;20207;-80
2023/04/20 07:33:10;;;;;;;0.70;0.60;;;;;;;;;;4984811;28;20257;-80
2023/04/20 07:35:39;;;;;;;0.70;0.60;;;;;;;;;;4994855;28;20211;-79
2023/04/20 07:38:06;;;;;;;0.70;0.60;;;;;;;;;;4993060;28;20256;-79
2023/04/20 07:40:32;;;;;;;0.70;0.70;;;;;;;;;;4992724;28;20309;-80
2023/04/20 07:42:59;;;;;;;0.70;0.60;;;;;;;;;;4992506;28;20494;-81
2023/04/20 07:45:26;;;;;;;0.70;0.70;;;;;;;;;;4993223;28;20443;-82
2023/04/20 07:47:54;;;;;;;0.70;0.60;;;;;;;;;;4991983;28;20508;-81
2023/04/20 07:50:20;;;;;;;0.70;0.60;;;;;;;;;;4992568;28;20501;-81
2023/04/20 07:52:48;;;;;;;0.70;0.60;;;;;;;;;;4991498;28;20450;-80
2023/04/20 07:55:16;;;;;;;0.70;0.60;;;;;;;;;;4993218;28;20454;-82
2023/04/20 07:57:43;;;;;;;0.70;0.60;;;;;;;;;;4993101;28;20528;-80
2023/04/20 08:00:12;;;;;;;0.70;0.60;;;;;;;;;;4992370;28;20505;-81
2023/04/20 08:02:38;;;;;;;0.70;0.60;;;;;;;;;;4993959;28;20481;-77
2023/04/20 08:05:08;;;;;;;0.70;0.60;;;;;;;;;;4992055;28;20814;-81
2023/04/20 08:07:36;;;;;;;0.70;0.60;;;;;;;;;;4976341;28;20502;-80
2023/04/20 08:10:05;;;;;;;0.80;0.80;;;;;;;;;;4993677;28;20786;-77
2023/04/20 08:12:32;;;;;;;0.70;0.70;;;;;;;;;;4993635;28;20434;-77
2023/04/20 08:15:00;;;;;;;0.70;0.60;;;;;;;;;;4992403;28;20443;-79
2023/04/20 08:17:27;;;;;;;0.70;0.60;;;;;;;;;;4993304;28;20481;-77
2023/04/20 08:19:54;;;;;;;0.70;0.60;;;;;;;;;;4993295;28;20497;-79
2023/04/20 08:22:20;;;;;;;0.70;0.60;;;;;;;;;;4992180;28;20465;-78
2023/04/20 08:24:47;;;;;;;0.70;0.60;;;;;;;;;;4990131;28;20466;-80
2023/04/20 08:27:15;;;;;;;0.70;0.60;;;;;;;;;;4976383;28;20447;-78
2023/04/20 08:29:42;;;;;;;0.70;0.60;;;;;;;;;;4982202;28;20446;-79
2023/04/20 08:32:11;;;;;;;0.70;0.60;;;;;;;;;;4991489;28;20443;-81
2023/04/20 08:34:37;;;;;;;0.70;0.60;;;;;;;;;;4994222;28;20442;-79
2023/04/20 08:37:06;;;;;;;0.70;0.60;;;;;;;;;;4992425;28;20907;-81
2023/04/20 08:39:33;;;;;;;0.70;0.60;;;;;;;;;;4992503;28;20942;-78
2023/04/20 08:42:01;;;;;;;0.70;0.60;;;;;;;;;;4991411;28;20810;-81
2023/04/20 08:44:28;;;;;;;0.70;0.60;;;;;;;;;;4975208;28;20470;-79
2023/04/20 08:46:58;;;;;;;0.70;0.60;;;;;;;;;;4991020;28;20474;-80
2023/04/20 08:49:28;;;;;;;0.80;0.70;;;;;;;;;;4991850;28;20455;-78
2023/04/20 08:51:55;;;;;;;0.70;0.60;;;;;;;;;;4974493;28;20464;-79
2023/04/20 08:54:22;;;;;;;0.70;0.60;;;;;;;;;;4991918;28;20520;-80
2023/04/20 08:56:51;;;;;;;0.70;0.60;;;;;;;;;;4982686;28;20976;-76
2023/04/20 08:59:17;;;;;;;0.70;0.60;;;;;;;;;;4992150;28;20446;-78
2023/04/20 09:01:45;;;;;;;0.70;0.60;;;;;;;;;;4992560;28;20461;-78
2023/04/20 09:04:16;;;;;;;0.70;0.60;;;;;;;;;;4990323;28;20987;-80
2023/04/20 09:06:48;;;;;;;0.70;0.60;;;;;;;;;;4982480;28;20468;-79
2023/04/20 09:09:15;;;;;;;0.80;0.73;;;;;;;;;;4991363;28;20472;-77
2023/04/20 09:11:42;;;;;;;0.70;0.60;;;;;;;;;;4991989;28;20621;-78
2023/04/20 09:14:11;;;;;;;0.70;0.70;;;;;;;;;;4991260;28;20809;-79
2023/04/20 09:16:49;;;;;;;0.70;0.60;;;;;;;;;;4990145;28;20431;-78
2023/04/20 09:19:20;;;;;;;0.70;0.60;;;;;;;;;;4990693;28;20470;-79
2023/04/20 09:21:47;;;;;;;0.70;0.60;;;;;;;;;;4991950;28;20509;-79
2023/04/20 09:24:15;;;;;;;0.70;0.70;;;;;;;;;;4991780;28;20580;-78
2023/04/20 09:26:42;;;;;;;0.70;0.70;;;;;;;;;;4991060;28;20454;-79
2023/04/20 09:29:15;;;;;;;0.70;0.60;;;;;;;;;;4992547;28;20528;-77
2023/04/20 09:31:41;;;;;;;3.30;3.10;;;;;;;;;;4990723;28;20527;-79
2023/04/20 09:34:09;;;;;;;0.70;0.60;;;;;;;;;;4991274;28;20445;-78
2023/04/20 09:36:38;;;;;;;1.20;1.07;;;;;;;;;;4992425;28;20486;-78
2023/04/20 09:39:06;;;;;;;0.80;0.80;;;;;;;;;;4974353;28;20483;-78
2023/04/20 09:41:34;;;;;;;0.70;0.60;;;;;;;;;;4991320;28;20477;-81
2023/04/20 09:44:01;;;;;;;0.70;0.60;;;;;;;;;;4991218;28;20474;-80
2023/04/20 09:46:30;;;;;;;0.70;0.60;;;;;;;;;;4991480;28;20538;-78
2023/04/20 09:48:58;;;;;;;0.70;0.60;;;;;;;;;;4991964;28;20443;-75
2023/04/20 09:51:27;;;;;;;0.70;0.60;;;;;;;;;;4990553;28;20440;-77
2023/04/20 09:53:57;;;;;;;0.70;0.60;;;;;;;;;;4990778;28;20985;-79
2023/04/20 09:56:23;;;;;;;0.70;0.60;;;;;;;;;;4995590;28;20501;-78
2023/04/20 09:58:50;;;;;;;0.70;0.60;;;;;;;;;;4998896;28;20461;-76
2023/04/20 10:01:17;;;;;;;0.70;0.70;;;;;;;;;;4991391;28;20473;-80
2023/04/20 10:03:45;;;;;;;0.70;0.70;;;;;;;;;;4989130;28;20595;-78
2023/04/20 10:06:22;;;;;;;0.70;0.60;;;;;;;;;;4989646;28;20450;-79
2023/04/20 10:08:50;;;;;;;0.70;0.60;;;;;;;;;;4989610;28;20797;-79
2023/04/20 10:11:24;;;;;;;0.70;0.60;;;;;;;;;;4990071;28;20443;-81
2023/04/20 10:13:53;;;;;;;0.70;0.60;;;;;;;;;;4986657;28;20447;-79
2023/04/20 10:16:20;;;;;;;0.70;0.60;;;;;;;;;;4990855;28;20434;-80
2023/04/20 10:18:55;;;;;;;0.70;0.60;;;;;;;;;;4987959;28;20505;-79
2023/04/20 10:21:22;;;;;;;0.70;0.60;;;;;;;;;;4990345;28;20442;-80
2023/04/20 10:23:50;;;;;;;1.57;1.47;;;;;;;;;;4986455;28;20478;-76
2023/04/20 10:26:17;;;;;;;0.70;0.60;;;;;;;;;;4988769;28;20936;-75
2023/04/20 10:28:44;;;;;;;0.70;0.60;;;;;;;;;;4987745;28;20445;-77
2023/04/20 10:31:14;;;;;;;0.70;0.60;;;;;;;;;;4990356;28;20438;-78
2023/04/20 10:33:48;;;;;;;0.70;0.60;;;;;;;;;;4989249;28;20435;-79
2023/04/20 10:36:21;;;;;;;0.70;0.70;;;;;;;;;;4989288;28;20451;-75
2023/04/20 10:38:47;;;;;;;0.70;0.70;;;;;;;;;;4990262;28;20513;-78
2023/04/20 10:41:15;;;;;;;0.70;0.70;;;;;;;;;;4991161;28;20461;-78
2023/04/20 10:43:42;;;;;;;0.70;0.60;;;;;;;;;;4988542;28;20807;-78
2023/04/20 10:46:12;;;;;;;0.70;0.60;;;;;;;;;;4987557;28;20446;-80
2023/04/20 10:48:47;;;;;;;0.70;0.60;;;;;;;;;;4989801;28;20451;-77
2023/04/20 10:51:16;;;;;;;0.70;0.70;;;;;;;;;;4988570;28;20464;-77
2023/04/20 10:53:42;;;;;;;0.70;0.60;;;;;;;;;;4989677;28;20496;-77
2023/04/20 10:56:10;;;;;;;0.70;0.60;;;;;;;;;;4987962;28;20438;-77
2023/04/20 10:58:39;;;;;;;0.70;0.60;;;;;;;;;;4983198;28;20461;-76
2023/04/20 11:01:06;;;;;;;0.70;0.60;;;;;;;;;;4990396;28;20444;-75
2023/04/20 11:03:33;;;;;;;0.70;0.70;;;;;;;;;;4989647;28;20554;-77
2023/04/20 11:06:01;;;;;;;0.70;0.60;;;;;;;;;;4994350;28;20461;-78
2023/04/20 11:08:34;;;;;;;0.70;0.60;;;;;;;;;;4985229;28;20468;-79
2023/04/20 11:11:01;;;;;;;0.70;0.60;;;;;;;;;;4996282;28;20452;-77
2023/04/20 11:13:29;;;;;;;0.70;0.60;;;;;;;;;;4994087;28;20957;-77
2023/04/20 11:15:58;;;;;;;0.70;0.70;;;;;;;;;;4981572;28;20455;-77
2023/04/20 11:18:29;;;;;;;0.70;0.60;;;;;;;;;;4983922;28;20451;-74
2023/04/20 11:20:57;;;;;;;0.70;0.70;;;;;;;;;;4993115;28;20433;-78
2023/04/20 11:23:35;;;;;;;0.70;0.70;;;;;;;;;;4992002;28;20465;-77
2023/04/20 11:26:02;;;;;;;0.70;0.63;;;;;;;;;;4992208;28;20446;-77
2023/04/20 11:28:33;;;;;;;0.70;0.60;;;;;;;;;;4993250;28;20444;-76
2023/04/20 11:31:01;;;;;;;0.70;0.60;;;;;;;;;;4992382;28;20438;-76
2023/04/20 11:33:28;;;;;;;0.80;0.77;;;;;;;;;;4991564;28;20933;-77
2023/04/20 11:35:58;;;;;;;0.70;0.70;;;;;;;;;;4992695;28;20451;-76
2023/04/20 11:38:26;;;;;;;0.70;0.70;;;;;;;;;;4993328;28;20485;-77
2023/04/20 11:40:55;;;;;;;0.70;0.60;;;;;;;;;;4992050;28;21010;-76
2023/04/20 11:43:22;;;;;;;0.70;0.60;;;;;;;;;;4975585;28;20495;-77
2023/04/20 11:45:50;;;;;;;0.70;0.60;;;;;;;;;;4989978;28;20430;-77
2023/04/20 11:48:18;;;;;;;0.80;0.80;;;;;;;;;;4993765;28;20451;-78
2023/04/20 11:50:46;;;;;;;0.70;0.60;;;;;;;;;;4993993;28;20775;-76
2023/04/20 11:53:13;;;;;;;0.70;0.60;;;;;;;;;;4989262;28;20475;-78
2023/04/20 11:55:40;;;;;;;0.70;0.60;;;;;;;;;;4991369;28;20489;-75
2023/04/20 11:58:09;;;;;;;0.90;0.90;;;;;;;;;;4982501;28;20458;-78
2023/04/20 12:00:37;;;;;;;0.80;0.80;;;;;;;;;;4993894;28;20830;-78
2023/04/20 12:03:04;;;;;;;0.70;0.70;;;;;;;;;;4992831;28;20472;-74
2023/04/20 12:05:32;;;;;;;0.70;0.70;;;;;;;;;;4993362;28;21463;-77
2023/04/20 12:07:59;;;;;;;0.70;0.70;;;;;;;;;;4993786;28;20532;-78
2023/04/20 12:10:26;;;;;;;0.70;0.70;;;;;;;;;;4981286;28;20443;-78
2023/04/20 12:12:55;;;;;;;1.13;1.03;;;;;;;;;;4993195;28;20445;-79
2023/04/20 12:15:22;;;;;;;0.70;0.60;;;;;;;;;;4991142;28;20451;-78
2023/04/20 12:17:48;;;;;;;1.00;0.90;;;;;;;;;;4992895;28;20511;-78
2023/04/20 12:20:15;;;;;;;0.80;0.80;;;;;;;;;;4992763;28;20963;-80
2023/04/20 12:22:45;;;;;;;0.90;0.90;;;;;;;;;;4992196;28;20504;-79
2023/04/20 12:25:12;;;;;;;0.90;0.90;;;;;;;;;;4992252;28;20476;-79
2023/04/20 12:27:39;;;;;;;0.70;0.60;;;;;;;;;;4992188;28;20531;-79
2023/04/20 12:30:08;;;;;;;0.70;0.70;;;;;;;;;;4992143;28;20439;-78
2023/04/20 12:32:35;;;;;;;0.70;0.60;;;;;;;;;;4992648;28;20437;-78
2023/04/20 12:35:02;;;;;;;0.70;0.67;;;;;;;;;;4993006;28;20445;-77
2023/04/20 12:37:29;;;;;;;0.93;0.93;;;;;;;;;;4993343;28;20492;-78
2023/04/20 12:39:57;;;;;;;0.80;0.70;;;;;;;;;;4993242;28;20466;-79
2023/04/20 12:42:24;;;;;;;0.70;0.70;;;;;;;;;;4975502;28;20447;-77
2023/04/20 12:44:51;;;;;;;0.70;0.70;;;;;;;;;;4970240;28;20471;-78
2023/04/20 12:47:18;;;;;;;1.60;1.20;;;;;;;;;;4991041;28;20437;-78
2023/04/20 12:49:45;;;;;;;0.90;0.90;;;;;;;;;;4993564;28;20440;-78
2023/04/20 12:52:11;;;;;;;0.70;0.70;;;;;;;;;;4993162;28;20878;-76
2023/04/20 12:54:38;;;;;;;0.70;0.60;;;;;;;;;;4984799;28;20447;-80
2023/04/20 12:57:10;;;;;;;0.70;0.70;;;;;;;;;;4982442;28;20962;-79
2023/04/20 12:59:37;;;;;;;0.70;0.70;;;;;;;;;;5000953;28;20502;-78
2023/04/20 13:02:04;;;;;;;0.80;0.70;;;;;;;;;;4991610;28;20483;-78
2023/04/20 13:04:35;;;;;;;0.80;0.70;;;;;;;;;;4990561;28;20497;-79
2023/04/20 13:07:02;;;;;;;0.73;0.70;;;;;;;;;;4991717;28;21014;-79
2023/04/20 13:09:29;;;;;;;0.70;0.60;;;;;;;;;;4989645;28;21071;-78
2023/04/20 13:11:56;;;;;;;0.73;0.70;;;;;;;;;;4992549;28;21001;-78
2023/04/20 13:14:26;;;;;;;0.77;0.70;;;;;;;;;;4991237;28;20431;-77
2023/04/20 13:16:53;;;;;;;0.70;0.60;;;;;;;;;;4988886;28;20435;-78
2023/04/20 13:19:21;;;;;;;0.70;0.60;;;;;;;;;;4990447;28;20437;-76
2023/04/20 13:21:48;;;;;;;0.80;0.70;;;;;;;;;;4994952;28;20858;-79
2023/04/20 13:24:15;;;;;;;0.80;0.70;;;;;;;;;;4990644;28;20504;-79
2023/04/20 13:26:42;;;;;;;0.80;0.70;;;;;;;;;;4991104;28;20454;-77
2023/04/20 13:29:08;;;;;;;0.80;0.70;;;;;;;;;;4989656;28;20495;-78
2023/04/20 13:31:37;;;;;;;0.70;0.70;;;;;;;;;;4989582;28;20449;-78
2023/04/20 13:34:04;;;;;;;0.80;0.70;;;;;;;;;;4989366;28;20538;-77
2023/04/20 13:36:31;;;;;;;0.70;0.70;;;;;;;;;;4991237;28;20536;-78
2023/04/20 13:39:00;;;;;;;1.00;1.00;;;;;;;;;;4986368;28;20509;-78
2023/04/20 13:41:27;;;;;;;0.80;0.70;;;;;;;;;;4982782;28;20484;-79
2023/04/20 13:43:56;;;;;;;0.80;0.80;;;;;;;;;;4987429;28;20447;-77
2023/04/20 13:46:23;;;;;;;0.70;0.70;;;;;;;;;;4991576;28;20449;-79
2023/04/20 13:48:52;;;;;;;0.70;0.70;;;;;;;;;;4992478;28;20529;-80
2023/04/20 13:51:19;;;;;;;1.10;1.10;;;;;;;;;;4987477;28;20451;-80
2023/04/20 13:53:49;;;;;;;0.70;0.67;;;;;;;;;;4985433;28;20444;-79
2023/04/20 13:56:15;;;;;;;0.70;0.70;;;;;;;;;;4988889;28;20455;-80
2023/04/20 13:58:42;;;;;;;1.00;0.90;;;;;;;;;;4992848;28;20439;-80
2023/04/20 14:01:10;;;;;;;0.70;0.67;;;;;;;;;;4991194;28;20442;-81
2023/04/20 14:03:37;;;;;;;0.80;0.70;;;;;;;;;;4989995;28;20918;-79
2023/04/20 14:06:06;;;;;;;0.80;0.70;;;;;;;;;;4979108;28;20485;-80
2023/04/20 14:08:32;;;;;;;0.80;0.70;;;;;;;;;;4992859;28;20956;-80
2023/04/20 14:10:59;;;;;;;0.70;0.60;;;;;;;;;;4993109;28;20804;-81
2023/04/20 14:13:26;;;;;;;0.70;0.60;;;;;;;;;;4990300;28;20848;-79
2023/04/20 14:15:53;;;;;;;1.00;1.00;;;;;;;;;;4992876;28;20413;-79
2023/04/20 14:18:20;;;;;;;0.83;0.83;;;;;;;;;;4992845;28;20450;-80
2023/04/20 14:20:51;;;;;;;0.73;0.70;;;;;;;;;;4992330;28;20439;-78
2023/04/20 14:23:19;;;;;;;0.80;0.60;;;;;;;;;;4996911;28;20460;-78
2023/04/20 14:25:49;;;;;;;0.70;0.60;;;;;;;;;;4991878;28;20507;-80
2023/04/20 14:28:16;;;;;;;0.70;0.60;;;;;;;;;;4993262;28;20512;-80
2023/04/20 14:30:44;;;;;;;0.80;0.80;;;;;;;;;;4994536;28;20460;-79
2023/04/20 14:33:11;;;;;;;0.70;0.70;;;;;;;;;;4993113;28;20431;-80
2023/04/20 14:35:38;;;;;;;0.80;0.70;;;;;;;;;;4989183;28;20445;-81
2023/04/20 14:38:04;;;;;;;0.80;0.80;;;;;;;;;;4995841;28;20463;-81
2023/04/20 14:40:33;;;;;;;0.80;0.73;;;;;;;;;;4995504;28;20453;-80
2023/04/20 14:43:00;;;;;;;0.70;0.70;;;;;;;;;;4998410;28;20766;-79
2023/04/20 14:45:27;;;;;;;0.70;0.70;;;;;;;;;;4998592;28;20485;-79
2023/04/20 14:47:54;;;;;;;3.53;1.37;;;;;;;;;;4998129;28;20528;-79
2023/04/20 14:50:21;;;;;;;1.73;1.63;;;;;;;;;;4996415;28;20453;-81
2023/04/20 14:52:48;;;;;;;0.80;0.80;;;;;;;;;;4998545;28;20467;-79
2023/04/20 14:55:14;;;;;;;0.70;0.70;;;;;;;;;;4992028;28;20453;-79
2023/04/20 14:57:46;;;;;;;0.70;0.70;;;;;;;;;;4997116;28;20481;-79